sensor_id;sensor_type;location;lat;lon;timestamp;pressure;altitude;pressure_sealevel;temperature;humidity
74065;BME280;62421;51.412;5.432;2023-05-15T00:01:04;101400.75;;;10.95;100.00
74065;BME280;62421;51.412;5.432;2023-05-15T00:03:29;101392.84;;;10.92;100.00
74065;BME280;62421;51.412;5.432;2023-05-15T00:05:55;101389.69;;;10.85;100.00
74065;BME280;62421;51.412;5.432;2023-05-15T00:08:21;101394.31;;;10.83;100.00
74065;BME280;62421;51.412;5.432;2023-05-15T00:10:46;101403.41;;;10.81;100.00
74065;BME280;62421;51.412;5.432;2023-05-15T00:13:12;101390.38;;;10.75;100.00
74065;BME280;62421;51.412;5.432;2023-05-15T00:15:37;101388.75;;;10.72;100.00
74065;BME280;62421;51.412;5.432;2023-05-15T00:18:03;101383.56;;;10.69;100.00
74065;BME280;62421;51.412;5.432;2023-05-15T00:20:28;101382.81;;;10.67;100.00
74065;BME280;62421;51.412;5.432;2023-05-15T00:22:54;101381.06;;;10.66;100.00
74065;BME280;62421;51.412;5.432;2023-05-15T00:25:19;101384.88;;;10.62;100.00
74065;BME280;62421;51.412;5.432;2023-05-15T00:27:45;101387.78;;;10.59;100.00
74065;BME280;62421;51.412;5.432;2023-05-15T00:30:12;101380.09;;;10.53;100.00
74065;BME280;62421;51.412;5.432;2023-05-15T00:32:38;101375.56;;;10.53;100.00
74065;BME280;62421;51.412;5.432;2023-05-15T00:35:04;101380.38;;;10.48;100.00
74065;BME280;62421;51.412;5.432;2023-05-15T00:37:29;101382.47;;;10.43;100.00
74065;BME280;62421;51.412;5.432;2023-05-15T00:39:54;101367.63;;;10.37;100.00
74065;BME280;62421;51.412;5.432;2023-05-15T00:42:21;101371.53;;;10.32;100.00
74065;BME280;62421;51.412;5.432;2023-05-15T00:44:48;101368.75;;;10.33;100.00
74065;BME280;62421;51.412;5.432;2023-05-15T00:47:14;101375.31;;;10.28;100.00
74065;BME280;62421;51.412;5.432;2023-05-15T00:49:40;101376.28;;;10.27;100.00
74065;BME280;62421;51.412;5.432;2023-05-15T00:52:06;101368.69;;;10.19;100.00
74065;BME280;62421;51.412;5.432;2023-05-15T00:54:33;101367.25;;;10.13;100.00
74065;BME280;62421;51.412;5.432;2023-05-15T00:56:59;101361.97;;;10.12;100.00
74065;BME280;62421;51.412;5.432;2023-05-15T00:59:27;101356.69;;;10.10;100.00
74065;BME280;62421;51.412;5.432;2023-05-15T01:01:53;101360.41;;;10.08;100.00
74065;BME280;62421;51.412;5.432;2023-05-15T01:04:20;101357.94;;;10.04;100.00
74065;BME280;62421;51.412;5.432;2023-05-15T01:06:46;101357.16;;;10.02;100.00
74065;BME280;62421;51.412;5.432;2023-05-15T01:09:13;101352.81;;;10.00;100.00
74065;BME280;62421;51.412;5.432;2023-05-15T01:11:40;101362.75;;;9.98;100.00
74065;BME280;62421;51.412;5.432;2023-05-15T01:14:07;101350.41;;;9.95;100.00
74065;BME280;62421;51.412;5.432;2023-05-15T01:16:33;101351.47;;;9.93;100.00
74065;BME280;62421;51.412;5.432;2023-05-15T01:19:00;101348.84;;;9.91;100.00
74065;BME280;62421;51.412;5.432;2023-05-15T01:29:26;101349.63;;;9.93;100.00
74065;BME280;62421;51.412;5.432;2023-05-15T01:32:02;101353.38;;;9.91;100.00
74065;BME280;62421;51.412;5.432;2023-05-15T01:34:33;101350.19;;;9.84;100.00
74065;BME280;62421;51.412;5.432;2023-05-15T01:37:04;101342.34;;;9.81;100.00
74065;BME280;62421;51.412;5.432;2023-05-15T01:39:32;101345.25;;;9.76;100.00
74065;BME280;62421;51.412;5.432;2023-05-15T01:42:04;101339.91;;;9.76;100.00
74065;BME280;62421;51.412;5.432;2023-05-15T01:44:33;101338.38;;;9.72;100.00
74065;BME280;62421;51.412;5.432;2023-05-15T01:47:12;101337.84;;;9.66;100.00
74065;BME280;62421;51.412;5.432;2023-05-15T01:49:38;101336.97;;;9.65;100.00
74065;BME280;62421;51.412;5.432;2023-05-15T01:52:12;101340.63;;;9.64;100.00
74065;BME280;62421;51.412;5.432;2023-05-15T01:54:39;101343.47;;;9.61;100.00
74065;BME280;62421;51.412;5.432;2023-05-15T01:57:08;101340.91;;;9.59;100.00
74065;BME280;62421;51.412;5.432;2023-05-15T01:59:34;101342.88;;;9.56;100.00
74065;BME280;62421;51.412;5.432;2023-05-15T02:02:03;101345.72;;;9.53;100.00
74065;BME280;62421;51.412;5.432;2023-05-15T02:04:29;101343.25;;;9.50;100.00
74065;BME280;62421;51.412;5.432;2023-05-15T02:06:55;101346.88;;;9.49;100.00
74065;BME280;62421;51.412;5.432;2023-05-15T02:09:21;101350.50;;;9.48;100.00
74065;BME280;62421;51.412;5.432;2023-05-15T02:11:47;101344.09;;;9.50;100.00
74065;BME280;62421;51.412;5.432;2023-05-15T02:14:15;101336.94;;;9.51;100.00
74065;BME280;62421;51.412;5.432;2023-05-15T02:16:41;101337.69;;;9.53;100.00
74065;BME280;62421;51.412;5.432;2023-05-15T02:19:06;101334.94;;;9.54;100.00
74065;BME280;62421;51.412;5.432;2023-05-15T02:21:32;101339.44;;;9.54;100.00
74065;BME280;62421;51.412;5.432;2023-05-15T02:23:57;101339.25;;;9.57;100.00
74065;BME280;62421;51.412;5.432;2023-05-15T02:26:38;101341.84;;;9.58;100.00
74065;BME280;62421;51.412;5.432;2023-05-15T02:29:30;101335.63;;;9.58;100.00
74065;BME280;62421;51.412;5.432;2023-05-15T02:35:18;101334.00;;;9.55;100.00
74065;BME280;62421;51.412;5.432;2023-05-15T02:37:52;101339.44;;;9.54;100.00
74065;BME280;62421;51.412;5.432;2023-05-15T02:40:19;101339.50;;;9.52;100.00
74065;BME280;62421;51.412;5.432;2023-05-15T02:42:48;101336.94;;;9.51;100.00
74065;BME280;62421;51.412;5.432;2023-05-15T02:45:14;101341.53;;;9.49;100.00
74065;BME280;62421;51.412;5.432;2023-05-15T02:47:41;101348.88;;;9.45;100.00
74065;BME280;62421;51.412;5.432;2023-05-15T02:50:07;101351.47;;;9.47;100.00
74065;BME280;62421;51.412;5.432;2023-05-15T02:52:34;101338.94;;;9.47;100.00
74065;BME280;62421;51.412;5.432;2023-05-15T02:55:02;101350.44;;;9.49;100.00
74065;BME280;62421;51.412;5.432;2023-05-15T02:57:28;101352.31;;;9.47;100.00
74065;BME280;62421;51.412;5.432;2023-05-15T02:59:54;101349.03;;;9.42;100.00
74065;BME280;62421;51.412;5.432;2023-05-15T03:02:21;101346.53;;;9.39;100.00
74065;BME280;62421;51.412;5.432;2023-05-15T03:04:46;101347.59;;;9.36;100.00
74065;BME280;62421;51.412;5.432;2023-05-15T03:07:11;101343.34;;;9.32;100.00
74065;BME280;62421;51.412;5.432;2023-05-15T03:09:38;101342.75;;;9.27;100.00
74065;BME280;62421;51.412;5.432;2023-05-15T03:12:04;101335.84;;;9.23;100.00
74065;BME280;62421;51.412;5.432;2023-05-15T03:14:30;101335.91;;;9.21;100.00
74065;BME280;62421;51.412;5.432;2023-05-15T03:16:55;101343.25;;;9.18;100.00
74065;BME280;62421;51.412;5.432;2023-05-15T03:19:20;101342.59;;;9.14;100.00
74065;BME280;62421;51.412;5.432;2023-05-15T03:21:46;101347.16;;;9.12;100.00
74065;BME280;62421;51.412;5.432;2023-05-15T03:24:11;101349.13;;;9.09;100.00
74065;BME280;62421;51.412;5.432;2023-05-15T03:26:36;101340.41;;;9.05;100.00
74065;BME280;62421;51.412;5.432;2023-05-15T03:29:04;101347.84;;;9.00;100.00
74065;BME280;62421;51.412;5.432;2023-05-15T03:31:29;101344.56;;;8.95;100.00
74065;BME280;62421;51.412;5.432;2023-05-15T03:33:55;101344.63;;;8.93;100.00
74065;BME280;62421;51.412;5.432;2023-05-15T03:36:20;101347.47;;;8.90;100.00
74065;BME280;62421;51.412;5.432;2023-05-15T03:38:46;101333.47;;;8.85;100.00
74065;BME280;62421;51.412;5.432;2023-05-15T03:41:12;101338.03;;;8.83;100.00
74065;BME280;62421;51.412;5.432;2023-05-15T03:43:37;101330.19;;;8.80;100.00
74065;BME280;62421;51.412;5.432;2023-05-15T03:46:03;101330.34;;;8.77;100.00
74065;BME280;62421;51.412;5.432;2023-05-15T03:48:29;101334.84;;;8.76;100.00
74065;BME280;62421;51.412;5.432;2023-05-15T03:50:54;101328.72;;;8.74;100.00
74065;BME280;62421;51.412;5.432;2023-05-15T03:53:20;101325.31;;;8.71;100.00
74065;BME280;62421;51.412;5.432;2023-05-15T03:55:45;101329.91;;;8.69;100.00
74065;BME280;62421;51.412;5.432;2023-05-15T03:58:11;101330.00;;;8.67;100.00
74065;BME280;62421;51.412;5.432;2023-05-15T04:00:36;101331.00;;;8.65;100.00
74065;BME280;62421;51.412;5.432;2023-05-15T04:03:01;101328.44;;;8.63;100.00
74065;BME280;62421;51.412;5.432;2023-05-15T04:05:27;101334.66;;;8.64;100.00
74065;BME280;62421;51.412;5.432;2023-05-15T04:07:52;101334.66;;;8.64;100.00
74065;BME280;62421;51.412;5.432;2023-05-15T04:10:18;101333.69;;;8.65;100.00
74065;BME280;62421;51.412;5.432;2023-05-15T04:12:43;101330.94;;;8.66;100.00
74065;BME280;62421;51.412;5.432;2023-05-15T04:15:22;101328.19;;;8.68;100.00
74065;BME280;62421;51.412;5.432;2023-05-15T04:17:50;101321.88;;;8.69;100.00
74065;BME280;62421;51.412;5.432;2023-05-15T04:20:18;101324.47;;;8.70;100.00
74065;BME280;62421;51.412;5.432;2023-05-15T04:22:45;101326.22;;;8.71;100.00
74065;BME280;62421;51.412;5.432;2023-05-15T04:25:11;101338.56;;;8.74;100.00
74065;BME280;62421;51.412;5.432;2023-05-15T04:27:39;101334.91;;;8.75;100.00
74065;BME280;62421;51.412;5.432;2023-05-15T04:30:06;101339.25;;;8.77;100.00
74065;BME280;62421;51.412;5.432;2023-05-15T04:32:32;101340.81;;;8.81;100.00
74065;BME280;62421;51.412;5.432;2023-05-15T04:35:04;101344.13;;;8.87;100.00
74065;BME280;62421;51.412;5.432;2023-05-15T04:37:30;101347.56;;;8.89;100.00
74065;BME280;62421;51.412;5.432;2023-05-15T04:39:56;101342.09;;;8.90;100.00
74065;BME280;62421;51.412;5.432;2023-05-15T04:42:21;101348.16;;;8.94;100.00
74065;BME280;62421;51.412;5.432;2023-05-15T04:44:47;101349.66;;;8.99;100.00
74065;BME280;62421;51.412;5.432;2023-05-15T04:47:12;101348.94;;;9.12;100.00
74065;BME280;62421;51.412;5.432;2023-05-15T04:49:39;101353.03;;;9.35;100.00
74065;BME280;62421;51.412;5.432;2023-05-15T04:52:05;101357.44;;;9.52;100.00
74065;BME280;62421;51.412;5.432;2023-05-15T04:54:30;101355.16;;;9.60;100.00
74065;BME280;62421;51.412;5.432;2023-05-15T04:56:55;101356.38;;;9.70;100.00
74065;BME280;62421;51.412;5.432;2023-05-15T04:59:22;101353.31;;;9.76;100.00
74065;BME280;62421;51.412;5.432;2023-05-15T05:01:49;101360.63;;;9.89;100.00
74065;BME280;62421;51.412;5.432;2023-05-15T05:04:14;101355.31;;;10.03;100.00
74065;BME280;62421;51.412;5.432;2023-05-15T05:06:43;101354.97;;;10.09;100.00
74065;BME280;62421;51.412;5.432;2023-05-15T05:09:09;101352.16;;;10.11;100.00
74065;BME280;62421;51.412;5.432;2023-05-15T05:11:34;101365.09;;;10.04;100.00
74065;BME280;62421;51.412;5.432;2023-05-15T05:14:00;101354.56;;;10.01;100.00
74065;BME280;62421;51.412;5.432;2023-05-15T05:16:25;101362.75;;;9.98;100.00
74065;BME280;62421;51.412;5.432;2023-05-15T05:18:51;101366.47;;;9.81;100.00
74065;BME280;62421;51.412;5.432;2023-05-15T05:21:16;101365.69;;;9.79;100.00
74065;BME280;62421;51.412;5.432;2023-05-15T05:23:42;101376.03;;;9.85;100.00
74065;BME280;62421;51.412;5.432;2023-05-15T05:26:07;101379.59;;;9.86;100.00
74065;BME280;62421;51.412;5.432;2023-05-15T05:28:32;101381.50;;;9.83;100.00
74065;BME280;62421;51.412;5.432;2023-05-15T05:30:58;101368.69;;;9.89;100.00
74065;BME280;62421;51.412;5.432;2023-05-15T05:33:23;101369.03;;;9.98;100.00
74065;BME280;62421;51.412;5.432;2023-05-15T05:35:49;101377.56;;;10.05;100.00
74065;BME280;62421;51.412;5.432;2023-05-15T05:38:15;101377.72;;;10.02;100.00
74065;BME280;62421;51.412;5.432;2023-05-15T05:40:41;101393.75;;;10.03;100.00
74065;BME280;62421;51.412;5.432;2023-05-15T05:43:06;101386.38;;;10.07;100.00
74065;BME280;62421;51.412;5.432;2023-05-15T05:45:32;101387.44;;;10.04;100.00
74065;BME280;62421;51.412;5.432;2023-05-15T05:47:57;101387.19;;;9.93;100.00
74065;BME280;62421;51.412;5.432;2023-05-15T05:50:23;101386.91;;;9.98;100.00
74065;BME280;62421;51.412;5.432;2023-05-15T05:52:49;101388.81;;;9.96;100.00
74065;BME280;62421;51.412;5.432;2023-05-15T05:55:15;101389.00;;;9.93;100.00
74065;BME280;62421;51.412;5.432;2023-05-15T05:57:40;101384.78;;;9.89;100.00
74065;BME280;62421;51.412;5.432;2023-05-15T06:00:06;101394.31;;;9.94;100.00
74065;BME280;62421;51.412;5.432;2023-05-15T06:02:34;101399.00;;;9.75;100.00
74065;BME280;62421;51.412;5.432;2023-05-15T06:04:59;101388.00;;;9.79;100.00
74065;BME280;62421;51.412;5.432;2023-05-15T06:07:25;101388.44;;;9.88;100.00
74065;BME280;62421;51.412;5.432;2023-05-15T06:09:50;101397.75;;;9.96;100.00
74065;BME280;62421;51.412;5.432;2023-05-15T06:12:16;101389.72;;;10.11;100.00
74065;BME280;62421;51.412;5.432;2023-05-15T06:14:41;101388.53;;;10.16;100.00
74065;BME280;62421;51.412;5.432;2023-05-15T06:17:06;101391.19;;;10.16;100.00
74065;BME280;62421;51.412;5.432;2023-05-15T06:19:32;101390.91;;;10.21;100.00
74065;BME280;62421;51.412;5.432;2023-05-15T06:21:57;101394.28;;;10.24;100.00
74065;BME280;62421;51.412;5.432;2023-05-15T06:24:22;101387.06;;;10.41;100.00
74065;BME280;62421;51.412;5.432;2023-05-15T06:26:49;101393.31;;;10.56;100.00
74065;BME280;62421;51.412;5.432;2023-05-15T06:29:16;101398.91;;;10.67;100.00
74065;BME280;62421;51.412;5.432;2023-05-15T06:31:41;101395.34;;;10.81;100.00
74065;BME280;62421;51.412;5.432;2023-05-15T06:34:06;101393.63;;;10.94;100.00
74065;BME280;62421;51.412;5.432;2023-05-15T06:36:32;101388.44;;;11.05;100.00
74065;BME280;62421;51.412;5.432;2023-05-15T06:38:57;101387.34;;;11.22;100.00
74065;BME280;62421;51.412;5.432;2023-05-15T06:41:23;101387.66;;;11.32;100.00
74065;BME280;62421;51.412;5.432;2023-05-15T06:43:48;101390.31;;;11.46;100.00
74065;BME280;62421;51.412;5.432;2023-05-15T06:46:14;101388.53;;;11.60;100.00
74065;BME280;62421;51.412;5.432;2023-05-15T06:48:41;101385.44;;;11.66;100.00
74065;BME280;62421;51.412;5.432;2023-05-15T06:51:06;101387.81;;;11.71;99.58
74065;BME280;62421;51.412;5.432;2023-05-15T06:53:32;101391.78;;;11.65;97.60
74065;BME280;62421;51.412;5.432;2023-05-15T06:55:57;101390.00;;;11.51;98.41
74065;BME280;62421;51.412;5.432;2023-05-15T06:58:23;101400.47;;;11.56;97.98
74065;BME280;62421;51.412;5.432;2023-05-15T07:00:48;101390.25;;;11.61;97.88
74065;BME280;62421;51.412;5.432;2023-05-15T07:03:14;101390.91;;;11.64;98.25
74065;BME280;62421;51.412;5.432;2023-05-15T07:05:41;101387.31;;;11.78;98.14
74065;BME280;62421;51.412;5.432;2023-05-15T07:08:06;101390.06;;;11.91;96.33
74065;BME280;62421;51.412;5.432;2023-05-15T07:10:32;101388.41;;;12.03;96.64
74065;BME280;62421;51.412;5.432;2023-05-15T07:12:57;101392.50;;;12.21;96.33
74065;BME280;62421;51.412;5.432;2023-05-15T07:15:22;101384.34;;;12.23;93.56
74065;BME280;62421;51.412;5.432;2023-05-15T07:17:48;101388.13;;;12.20;94.79
74065;BME280;62421;51.412;5.432;2023-05-15T07:20:13;101393.81;;;12.16;94.20
74065;BME280;62421;51.412;5.432;2023-05-15T07:22:38;101371.38;;;12.15;93.82
74065;BME280;62421;51.412;5.432;2023-05-15T07:25:05;101383.22;;;12.13;92.13
74065;BME280;62421;51.412;5.432;2023-05-15T07:27:30;101382.59;;;12.09;93.34
74065;BME280;62421;51.412;5.432;2023-05-15T07:29:56;101372.88;;;12.06;93.96
74065;BME280;62421;51.412;5.432;2023-05-15T07:32:21;101383.59;;;12.34;94.08
74065;BME280;62421;51.412;5.432;2023-05-15T07:34:46;101384.38;;;12.74;92.59
74065;BME280;62421;51.412;5.432;2023-05-15T07:37:12;101380.06;;;12.97;91.47
74065;BME280;62421;51.412;5.432;2023-05-15T07:39:37;101373.31;;;13.16;89.53
74065;BME280;62421;51.412;5.432;2023-05-15T07:42:03;101378.16;;;13.36;88.65
74065;BME280;62421;51.412;5.432;2023-05-15T07:44:28;101372.03;;;13.58;87.15
74065;BME280;62421;51.412;5.432;2023-05-15T07:46:54;101370.59;;;13.65;86.16
74065;BME280;62421;51.412;5.432;2023-05-15T07:49:20;101369.75;;;13.65;86.47
74065;BME280;62421;51.412;5.432;2023-05-15T07:51:46;101370.38;;;13.68;86.93
74065;BME280;62421;51.412;5.432;2023-05-15T07:54:11;101370.09;;;13.60;85.64
74065;BME280;62421;51.412;5.432;2023-05-15T07:56:36;101378.34;;;13.46;88.62
74065;BME280;62421;51.412;5.432;2023-05-15T07:59:02;101364.78;;;13.35;87.59
74065;BME280;62421;51.412;5.432;2023-05-15T08:01:27;101372.63;;;13.25;89.25
74065;BME280;62421;51.412;5.432;2023-05-15T08:03:53;101370.72;;;13.14;88.54
74065;BME280;62421;51.412;5.432;2023-05-15T08:06:18;101368.59;;;13.06;89.59
74065;BME280;62421;51.412;5.432;2023-05-15T08:08:44;101367.19;;;13.01;87.52
74065;BME280;62421;51.412;5.432;2023-05-15T08:11:09;101376.06;;;12.90;87.01
74065;BME280;62421;51.412;5.432;2023-05-15T08:13:34;101370.25;;;12.70;88.81
74065;BME280;62421;51.412;5.432;2023-05-15T08:16:00;101371.34;;;12.68;90.35
74065;BME280;62421;51.412;5.432;2023-05-15T08:18:25;101363.69;;;12.75;91.27
74065;BME280;62421;51.412;5.432;2023-05-15T08:20:50;101360.56;;;12.81;89.67
74065;BME280;62421;51.412;5.432;2023-05-15T08:23:16;101364.84;;;12.83;89.52
74065;BME280;62421;51.412;5.432;2023-05-15T08:25:41;101354.63;;;12.76;91.55
74065;BME280;62421;51.412;5.432;2023-05-15T08:28:07;101362.38;;;12.80;90.81
74065;BME280;62421;51.412;5.432;2023-05-15T08:30:32;101367.13;;;12.89;89.89
74065;BME280;62421;51.412;5.432;2023-05-15T08:32:58;101368.06;;;13.01;90.95
74065;BME280;62421;51.412;5.432;2023-05-15T08:35:23;101370.97;;;13.11;86.36
74065;BME280;62421;51.412;5.432;2023-05-15T08:37:49;101355.63;;;13.11;87.58
74065;BME280;62421;51.412;5.432;2023-05-15T08:40:14;101362.31;;;13.19;88.88
74065;BME280;62421;51.412;5.432;2023-05-15T08:42:49;101355.59;;;13.37;87.67
74065;BME280;62421;51.412;5.432;2023-05-15T08:45:17;101359.00;;;13.52;84.49
74065;BME280;62421;51.412;5.432;2023-05-15T08:47:43;101353.31;;;13.68;86.42
74065;BME280;62421;51.412;5.432;2023-05-15T08:50:09;101350.72;;;13.90;85.56
74065;BME280;62421;51.412;5.432;2023-05-15T08:52:44;101349.06;;;14.12;82.76
74065;BME280;62421;51.412;5.432;2023-05-15T08:55:12;101350.97;;;14.45;84.97
74065;BME280;62421;51.412;5.432;2023-05-15T08:57:38;101344.16;;;14.75;81.29
74065;BME280;62421;51.412;5.432;2023-05-15T09:00:05;101343.31;;;14.86;76.33
74065;BME280;62421;51.412;5.432;2023-05-15T09:02:34;101349.22;;;14.91;80.84
74065;BME280;62421;51.412;5.432;2023-05-15T09:05:00;101341.81;;;15.15;79.43
74065;BME280;62421;51.412;5.432;2023-05-15T09:07:27;101342.88;;;15.35;77.47
74065;BME280;62421;51.412;5.432;2023-05-15T09:09:54;101340.84;;;15.60;78.59
74065;BME280;62421;51.412;5.432;2023-05-15T09:12:22;101351.97;;;15.89;78.79
74065;BME280;62421;51.412;5.432;2023-05-15T09:14:48;101341.09;;;16.22;76.78
74065;BME280;62421;51.412;5.432;2023-05-15T09:17:13;101348.69;;;16.49;75.63
74065;BME280;62421;51.412;5.432;2023-05-15T09:19:40;101345.13;;;16.79;72.96
74065;BME280;62421;51.412;5.432;2023-05-15T09:22:23;101337.50;;;16.94;74.11
74065;BME280;62421;51.412;5.432;2023-05-15T09:24:50;101337.56;;;17.04;72.31
74065;BME280;62421;51.412;5.432;2023-05-15T09:27:18;101337.31;;;17.16;72.46
74065;BME280;62421;51.412;5.432;2023-05-15T09:29:44;101331.34;;;17.42;71.76
74065;BME280;62421;51.412;5.432;2023-05-15T09:32:13;101336.53;;;17.65;70.90
74065;BME280;62421;51.412;5.432;2023-05-15T09:34:40;101330.44;;;17.82;67.94
74065;BME280;62421;51.412;5.432;2023-05-15T09:37:08;101337.72;;;17.91;68.56
74065;BME280;62421;51.412;5.432;2023-05-15T09:39:43;101334.97;;;17.72;65.10
74065;BME280;62421;51.412;5.432;2023-05-15T09:42:13;101342.59;;;17.18;63.88
74065;BME280;62421;51.412;5.432;2023-05-15T09:44:42;101350.91;;;16.86;66.68
74065;BME280;62421;51.412;5.432;2023-05-15T09:47:09;101342.91;;;16.63;65.66
74065;BME280;62421;51.412;5.432;2023-05-15T09:49:35;101345.31;;;16.35;66.90
74065;BME280;62421;51.412;5.432;2023-05-15T09:52:00;101340.88;;;16.34;66.95
74065;BME280;62421;51.412;5.432;2023-05-15T09:54:26;101338.25;;;16.23;67.77
74065;BME280;62421;51.412;5.432;2023-05-15T09:56:54;101340.50;;;16.18;69.42
74065;BME280;62421;51.412;5.432;2023-05-15T09:59:20;101345.72;;;16.10;69.51
74065;BME280;62421;51.412;5.432;2023-05-15T10:01:47;101342.72;;;16.13;75.23
74065;BME280;62421;51.412;5.432;2023-05-15T10:04:13;101343.78;;;16.22;72.40
74065;BME280;62421;51.412;5.432;2023-05-15T10:06:49;101340.91;;;16.13;72.14
74065;BME280;62421;51.412;5.432;2023-05-15T10:09:16;101335.72;;;16.10;69.96
74065;BME280;62421;51.412;5.432;2023-05-15T10:11:45;101343.34;;;16.16;70.89
74065;BME280;62421;51.412;5.432;2023-05-15T10:14:12;101347.22;;;16.24;71.35
74065;BME280;62421;51.412;5.432;2023-05-15T10:16:39;101347.38;;;16.22;71.50
74065;BME280;62421;51.412;5.432;2023-05-15T10:19:07;101345.41;;;16.24;70.78
74065;BME280;62421;51.412;5.432;2023-05-15T10:21:34;101348.13;;;16.24;72.73
74065;BME280;62421;51.412;5.432;2023-05-15T10:24:01;101354.31;;;16.15;71.46
74065;BME280;62421;51.412;5.432;2023-05-15T10:26:37;101353.25;;;16.06;72.61
74065;BME280;62421;51.412;5.432;2023-05-15T10:29:09;101355.38;;;16.03;73.45
74065;BME280;62421;51.412;5.432;2023-05-15T10:31:35;101361.63;;;16.03;72.07
74065;BME280;62421;51.412;5.432;2023-05-15T10:34:02;101347.03;;;15.94;73.78
74065;BME280;62421;51.412;5.432;2023-05-15T10:36:29;101343.59;;;15.92;72.32
74065;BME280;62421;51.412;5.432;2023-05-15T10:38:56;101353.09;;;15.87;73.83
74065;BME280;62421;51.412;5.432;2023-05-15T10:41:22;101352.56;;;15.93;75.19
74065;BME280;62421;51.412;5.432;2023-05-15T10:43:50;101348.09;;;16.03;73.81
74065;BME280;62421;51.412;5.432;2023-05-15T10:46:17;101348.09;;;16.03;72.63
74065;BME280;62421;51.412;5.432;2023-05-15T10:48:43;101345.91;;;15.97;72.86
74065;BME280;62421;51.412;5.432;2023-05-15T10:51:15;101341.09;;;16.01;74.46
74065;BME280;62421;51.412;5.432;2023-05-15T10:53:42;101354.38;;;16.04;74.00
74065;BME280;62421;51.412;5.432;2023-05-15T10:56:15;101336.94;;;16.17;74.07
74065;BME280;62421;51.412;5.432;2023-05-15T10:58:50;101345.31;;;16.35;73.18
74065;BME280;62421;51.412;5.432;2023-05-15T11:01:31;101348.25;;;16.44;73.93
74065;BME280;62421;51.412;5.432;2023-05-15T11:04:16;101350.88;;;16.55;73.72
74065;BME280;62421;51.412;5.432;2023-05-15T11:06:44;101353.91;;;16.62;72.78
74065;BME280;62421;51.412;5.432;2023-05-15T11:11:57;101352.44;;;16.36;72.76
74065;BME280;62421;51.412;5.432;2023-05-15T11:14:27;101344.06;;;16.18;73.81
74065;BME280;62421;51.412;5.432;2023-05-15T11:27:31;101337.88;;;16.07;73.99
74065;BME280;62421;51.412;5.432;2023-05-15T11:30:16;101345.44;;;15.92;75.83
74065;BME280;62421;51.412;5.432;2023-05-15T11:33:03;101345.81;;;15.87;75.11
74065;BME280;62421;51.412;5.432;2023-05-15T11:35:32;101334.63;;;15.81;75.60
74065;BME280;62421;51.412;5.432;2023-05-15T11:38:17;101346.72;;;15.65;76.38
74065;BME280;62421;51.412;5.432;2023-05-15T11:45:45;101345.03;;;15.53;79.51
74065;BME280;62421;51.412;5.432;2023-05-15T11:48:16;101330.50;;;15.65;77.88
74065;BME280;62421;51.412;5.432;2023-05-15T11:50:42;101344.63;;;15.80;77.46
74065;BME280;62421;51.412;5.432;2023-05-15T11:53:08;101345.50;;;16.02;77.29
74065;BME280;62421;51.412;5.432;2023-05-15T11:55:40;101331.25;;;16.00;76.60
74065;BME280;62421;51.412;5.432;2023-05-15T11:58:10;101343.06;;;15.99;77.35
74065;BME280;62421;51.412;5.432;2023-05-15T12:00:37;101337.97;;;15.84;76.73
74065;BME280;62421;51.412;5.432;2023-05-15T12:03:02;101339.47;;;15.66;77.71
74065;BME280;62421;51.412;5.432;2023-05-15T12:05:28;101343.22;;;15.53;78.37
74065;BME280;62421;51.412;5.432;2023-05-15T12:07:54;101341.00;;;15.47;79.39
74065;BME280;62421;51.412;5.432;2023-05-15T12:10:19;101342.72;;;15.48;79.18
74065;BME280;62421;51.412;5.432;2023-05-15T12:12:45;101336.06;;;15.52;78.14
74065;BME280;62421;51.412;5.432;2023-05-15T12:15:12;101336.84;;;15.43;79.18
74065;BME280;62421;51.412;5.432;2023-05-15T12:17:41;101339.59;;;15.21;80.69
74065;BME280;62421;51.412;5.432;2023-05-15T12:20:09;101344.03;;;14.99;82.88
74065;BME280;62421;51.412;5.432;2023-05-15T12:22:37;101338.16;;;14.94;84.89
74065;BME280;62421;51.412;5.432;2023-05-15T12:25:03;101349.31;;;15.01;84.29
74065;BME280;62421;51.412;5.432;2023-05-15T12:27:29;101339.75;;;15.08;84.21
74065;BME280;62421;51.412;5.432;2023-05-15T12:29:55;101345.63;;;15.24;83.97
74065;BME280;62421;51.412;5.432;2023-05-15T12:32:20;101351.50;;;15.41;82.36
74065;BME280;62421;51.412;5.432;2023-05-15T12:34:46;101347.03;;;15.51;82.02
74065;BME280;62421;51.412;5.432;2023-05-15T12:37:12;101355.31;;;15.38;82.39
74065;BME280;62421;51.412;5.432;2023-05-15T12:39:55;101363.66;;;15.35;83.16
74065;BME280;62421;51.412;5.432;2023-05-15T12:42:21;101354.19;;;15.41;83.59
74065;BME280;62421;51.412;5.432;2023-05-15T12:44:51;101354.44;;;15.49;82.39
74065;BME280;62421;51.412;5.432;2023-05-15T12:47:24;101348.47;;;15.55;82.82
74065;BME280;62421;51.412;5.432;2023-05-15T12:49:54;101347.59;;;15.66;83.25
74065;BME280;62421;51.412;5.432;2023-05-15T12:52:20;101343.50;;;15.83;82.49
74065;BME280;62421;51.412;5.432;2023-05-15T12:54:46;101347.88;;;15.95;82.22
74065;BME280;62421;51.412;5.432;2023-05-15T12:57:12;101345.50;;;16.02;82.47
74065;BME280;62421;51.412;5.432;2023-05-15T12:59:39;101339.56;;;16.08;80.44
74065;BME280;62421;51.412;5.432;2023-05-15T13:02:08;101340.38;;;15.99;81.72
74065;BME280;62421;51.412;5.432;2023-05-15T13:04:34;101334.72;;;16.32;80.68
74065;BME280;62421;51.412;5.432;2023-05-15T13:06:59;101340.53;;;16.70;80.53
74065;BME280;62421;51.412;5.432;2023-05-15T13:09:25;101341.81;;;16.96;76.35
74065;BME280;62421;51.412;5.432;2023-05-15T13:11:53;101336.47;;;16.85;77.65
74065;BME280;62421;51.412;5.432;2023-05-15T13:14:19;101350.84;;;17.07;76.88
74065;BME280;62421;51.412;5.432;2023-05-15T13:16:45;101339.88;;;17.08;77.02